Time;durP1;ratioP1;P1;durP2;ratioP2;P2;SDS_P1;SDS_P2;PMS_P1;PMS_P2;Temp;Humidity;BMP_temperature;BMP_pressure;BME280_temperature;BME280_humidity;BME280_pressure;Samples;Min_cycle;Max_cycle;Signal;HPM_P1;HPM_P2
2023/04/03 00:00:42;;;;;;;21.60;8.43;;;6.20;97.20;;;;;;5015550;28;20492;-61
2023/04/03 00:03:09;;;;;;;15.00;8.80;;;6.20;97.20;;;;;;5008899;28;20797;-61
2023/04/03 00:05:36;;;;;;;16.10;8.20;;;6.10;96.60;;;;;;5007091;28;20484;-61
2023/04/03 00:08:04;;;;;;;17.13;6.87;;;6.00;96.20;;;;;;5009644;28;21084;-61
2023/04/03 00:10:32;;;;;;;16.80;9.20;;;6.00;96.10;;;;;;5003900;28;20981;-61
2023/04/03 00:12:59;;;;;;;19.37;8.43;;;5.90;95.80;;;;;;4982217;28;20485;-61
2023/04/03 00:15:26;;;;;;;22.53;9.20;;;5.90;95.60;;;;;;5002911;28;20487;-60
2023/04/03 00:17:52;;;;;;;16.60;8.33;;;5.90;95.30;;;;;;4999989;28;20481;-61
2023/04/03 00:20:19;;;;;;;22.40;11.00;;;5.90;95.50;;;;;;4990579;28;20870;-61
2023/04/03 00:22:46;;;;;;;16.17;7.20;;;5.80;95.20;;;;;;4996612;28;20586;-61
2023/04/03 00:25:13;;;;;;;13.90;7.17;;;5.80;95.20;;;;;;4992110;28;20577;-60
2023/04/03 00:27:41;;;;;;;16.30;8.77;;;5.80;95.40;;;;;;4983669;28;20482;-61
2023/04/03 00:30:11;;;;;;;17.70;6.93;;;5.80;95.00;;;;;;4975417;28;20487;-60
2023/04/03 00:32:38;;;;;;;12.17;5.73;;;5.80;95.00;;;;;;5001209;28;21358;-61
2023/04/03 00:35:05;;;;;;;14.47;7.10;;;5.80;95.00;;;;;;4991621;28;20467;-61
2023/04/03 00:37:32;;;;;;;23.60;9.87;;;5.80;95.20;;;;;;5008357;28;20480;-61
2023/04/03 00:39:59;;;;;;;19.00;8.87;;;5.80;94.70;;;;;;5009755;28;20917;-61
2023/04/03 00:42:26;;;;;;;27.30;11.60;;;6.10;94.80;;;;;;4982314;28;20474;-60
2023/04/03 00:45:29;;;;;;;21.23;8.87;;;5.80;94.40;;;;;;4990810;28;21333;-60
2023/04/03 00:47:59;;;;;;;30.23;9.03;;;5.70;94.40;;;;;;4978551;28;20484;-60
2023/04/03 00:50:26;;;;;;;26.90;11.30;;;5.70;94.50;;;;;;5003016;28;20596;-60
2023/04/03 00:52:54;;;;;;;15.77;8.30;;;5.70;94.90;;;;;;4959339;28;20529;-60
2023/04/03 00:55:21;;;;;;;20.83;7.97;;;5.50;93.80;;;;;;4987656;28;20911;-61
2023/04/03 00:57:48;;;;;;;15.23;8.63;;;5.60;94.00;;;;;;4996475;28;21004;-60
2023/04/03 01:00:19;;;;;;;19.13;6.00;;;5.60;94.20;;;;;;5020519;28;20503;-60
2023/04/03 01:02:46;;;;;;;19.93;7.23;;;5.50;94.40;;;;;;4984630;28;20463;-60
2023/04/03 01:05:17;;;;;;;16.03;7.77;;;5.40;94.40;;;;;;4979348;28;20492;-60
2023/04/03 01:07:44;;;;;;;18.63;8.13;;;5.30;94.40;;;;;;4990841;28;20473;-61
2023/04/03 01:10:15;;;;;;;12.80;6.83;;;5.30;94.50;;;;;;4995987;28;20488;-60
2023/04/03 01:12:43;;;;;;;11.73;6.53;;;5.30;94.50;;;;;;4997562;28;20489;-60
2023/04/03 01:15:13;;;;;;;11.33;6.60;;;5.20;94.50;;;;;;5010115;28;20472;-60
2023/04/03 01:17:41;;;;;;;11.50;6.63;;;5.20;94.50;;;;;;4990924;28;20815;-61
2023/04/03 01:20:50;;;;;;;11.00;6.33;;;5.10;94.60;;;;;;4996834;28;20832;-60
2023/04/03 01:23:26;;;;;;;18.27;8.80;;;5.10;95.00;;;;;;4991431;28;20508;-60
2023/04/03 01:25:55;;;;;;;21.00;9.17;;;5.00;94.80;;;;;;5007865;28;20496;-60
2023/04/03 01:28:25;;;;;;;19.00;10.27;;;4.90;94.80;;;;;;4988920;28;20484;-61
2023/04/03 01:30:59;;;;;;;14.20;7.87;;;4.80;95.00;;;;;;5003312;28;20598;-60
2023/04/03 01:33:27;;;;;;;26.03;11.27;;;4.80;95.30;;;;;;4989763;28;20488;-60
2023/04/03 01:35:54;;;;;;;20.63;10.23;;;4.70;95.10;;;;;;4989828;28;20490;-60
2023/04/03 01:38:21;;;;;;;15.77;6.73;;;4.70;95.40;;;;;;4984342;28;20482;-60
2023/04/03 01:40:48;;;;;;;13.43;7.90;;;4.60;95.40;;;;;;4988648;28;20874;-60
2023/04/03 01:43:14;;;;;;;20.63;8.87;;;4.60;95.50;;;;;;5009238;28;20472;-60
2023/04/03 01:45:44;;;;;;;18.40;8.07;;;4.60;95.50;;;;;;4994606;28;20474;-60
2023/04/03 01:48:10;;;;;;;16.10;8.30;;;4.50;95.70;;;;;;4995616;28;20637;-60
2023/04/03 01:50:38;;;;;;;16.47;8.40;;;4.50;95.80;;;;;;4995443;28;20513;-60
2023/04/03 01:53:05;;;;;;;19.53;7.40;;;4.50;95.70;;;;;;4996482;28;21097;-60
2023/04/03 01:55:32;;;;;;;20.03;8.90;;;4.40;95.80;;;;;;4996008;28;20478;-60
2023/04/03 01:57:58;;;;;;;20.10;8.77;;;4.40;95.80;;;;;;4995031;28;20814;-60
2023/04/03 02:00:26;;;;;;;24.00;8.40;;;4.30;95.80;;;;;;4983179;28;20904;-60
2023/04/03 02:02:53;;;;;;;21.03;9.10;;;4.30;95.80;;;;;;5011849;28;20494;-60
2023/04/03 02:05:19;;;;;;;31.80;12.40;;;4.30;95.70;;;;;;4984179;28;20490;-60
2023/04/03 02:07:47;;;;;;;19.53;7.10;;;4.20;95.70;;;;;;4994808;28;20573;-60
2023/04/03 02:10:14;;;;;;;14.63;7.30;;;4.20;95.80;;;;;;5013201;28;20491;-60
2023/04/03 02:12:41;;;;;;;14.97;7.50;;;4.30;95.80;;;;;;4995208;28;20501;-60
2023/04/03 02:15:09;;;;;;;20.77;7.47;;;4.20;95.70;;;;;;4977645;28;20486;-60
2023/04/03 02:17:36;;;;;;;17.40;8.47;;;4.20;95.70;;;;;;4981484;28;20486;-60
2023/04/03 02:20:03;;;;;;;28.50;10.90;;;4.20;95.70;;;;;;5009033;28;20481;-60
2023/04/03 02:22:30;;;;;;;28.93;11.30;;;4.10;95.80;;;;;;4998216;28;20556;-60
2023/04/03 02:24:58;;;;;;;18.67;8.57;;;4.10;95.90;;;;;;5011239;28;20584;-60
2023/04/03 02:27:24;;;;;;;32.30;12.60;;;4.00;95.80;;;;;;4995502;28;20509;-60
2023/04/03 02:29:51;;;;;;;19.33;7.50;;;4.00;95.80;;;;;;4994295;28;20486;-60
2023/04/03 02:32:18;;;;;;;25.20;11.07;;;4.00;95.90;;;;;;4991290;28;20493;-60
2023/04/03 02:34:44;;;;;;;15.73;7.27;;;4.00;95.90;;;;;;4993800;28;20486;-60
2023/04/03 02:37:12;;;;;;;23.70;7.77;;;4.00;95.80;;;;;;4993278;28;20482;-60
2023/04/03 02:39:38;;;;;;;24.73;9.87;;;4.00;95.90;;;;;;4995446;28;20474;-60
2023/04/03 02:42:07;;;;;;;30.57;12.60;;;4.00;96.00;;;;;;4990025;28;20486;-60
2023/04/03 02:44:33;;;;;;;21.53;8.33;;;4.00;96.00;;;;;;5002016;28;20718;-60
2023/04/03 02:47:00;;;;;;;22.17;10.20;;;3.90;95.70;;;;;;4974338;28;20511;-60
2023/04/03 02:49:27;;;;;;;32.03;12.60;;;3.90;95.90;;;;;;5015428;28;20504;-60
2023/04/03 02:51:53;;;;;;;22.97;8.30;;;3.90;96.00;;;;;;5004651;28;20477;-60
2023/04/03 02:54:20;;;;;;;41.57;14.10;;;3.90;96.00;;;;;;4987419;28;20478;-60
2023/04/03 02:56:47;;;;;;;17.07;8.60;;;3.90;95.80;;;;;;4994650;28;20466;-60
2023/04/03 02:59:15;;;;;;;17.60;6.83;;;3.80;95.80;;;;;;4983726;28;20488;-60
2023/04/03 03:01:42;;;;;;;12.73;6.53;;;3.80;95.80;;;;;;4993267;28;20501;-60
2023/04/03 03:04:09;;;;;;;20.23;8.13;;;3.70;95.80;;;;;;4972039;28;20490;-60
2023/04/03 03:06:35;;;;;;;19.00;7.63;;;3.80;96.20;;;;;;5002297;28;21099;-60
2023/04/03 03:09:03;;;;;;;22.67;9.70;;;3.80;96.00;;;;;;5006689;28;21218;-61
2023/04/03 03:11:30;;;;;;;30.03;11.37;;;3.70;96.00;;;;;;5000060;28;20488;-60
2023/04/03 03:13:57;;;;;;;17.13;6.77;;;3.70;95.90;;;;;;4991976;28;21212;-60
2023/04/03 03:16:25;;;;;;;36.73;12.03;;;3.70;96.00;;;;;;4996781;28;20975;-59
2023/04/03 03:18:52;;;;;;;23.80;9.00;;;3.70;95.90;;;;;;4997497;28;20478;-60
2023/04/03 03:21:18;;;;;;;46.13;12.60;;;3.70;96.00;;;;;;4998764;28;20498;-60
2023/04/03 03:23:45;;;;;;;14.50;6.70;;;3.60;95.90;;;;;;4997886;28;20493;-60
2023/04/03 03:26:12;;;;;;;20.80;7.77;;;3.60;96.00;;;;;;4994382;28;21010;-60
2023/04/03 03:28:40;;;;;;;28.93;7.60;;;3.60;96.20;;;;;;5000067;28;20484;-59
2023/04/03 03:31:08;;;;;;;31.23;9.10;;;3.60;96.40;;;;;;4999846;28;20490;-60
2023/04/03 03:33:36;;;;;;;19.03;6.90;;;3.70;96.30;;;;;;4993031;28;20482;-60
2023/04/03 03:36:02;;;;;;;33.00;8.83;;;3.60;96.20;;;;;;4992219;28;20845;-59
2023/04/03 03:38:30;;;;;;;52.80;11.83;;;;;;;;;;4993458;28;20478;-59
2023/04/03 03:40:57;;;;;;;38.13;9.80;;;;;;;;;;4994087;28;20502;-59
2023/04/03 03:43:24;;;;;;;38.20;11.53;;;3.60;96.20;;;;;;4993671;28;20480;-59
2023/04/03 03:45:52;;;;;;;32.03;10.40;;;3.60;96.30;;;;;;4994368;28;20784;-60
2023/04/03 03:48:18;;;;;;;19.93;7.60;;;3.50;96.40;;;;;;4992551;28;20581;-60
2023/04/03 03:50:47;;;;;;;28.33;8.37;;;3.50;96.30;;;;;;4994837;28;20489;-60
2023/04/03 03:53:14;;;;;;;29.67;8.23;;;3.50;96.50;;;;;;4989423;28;20498;-59
2023/04/03 03:55:41;;;;;;;23.83;8.57;;;3.40;96.20;;;;;;4998394;28;20486;-60
2023/04/03 03:58:08;;;;;;;21.83;6.80;;;3.40;96.10;;;;;;4986070;28;20520;-59
2023/04/03 04:00:34;;;;;;;21.40;7.63;;;3.40;96.50;;;;;;4980407;28;20841;-60
2023/04/03 04:03:02;;;;;;;45.17;10.97;;;;;;;;;;4984381;28;20606;-60
2023/04/03 04:05:29;;;;;;;39.00;11.33;;;;;;;;;;4992407;28;21216;-60
2023/04/03 04:07:57;;;;;;;42.30;10.30;;;3.30;96.40;;;;;;4992451;28;20486;-60
2023/04/03 04:10:24;;;;;;;71.47;13.40;;;;;;;;;;5003274;28;20850;-59
2023/04/03 04:12:51;;;;;;;47.00;11.40;;;;;;;;;;5015224;28;20504;-60
2023/04/03 04:15:18;;;;;;;64.73;13.20;;;;;;;;;;5012982;28;20620;-60
2023/04/03 04:17:45;;;;;;;28.07;7.10;;;3.30;96.70;;;;;;4953340;28;20772;-60
2023/04/03 04:20:12;;;;;;;21.03;8.03;;;3.30;96.60;;;;;;4999344;28;21198;-60
2023/04/03 04:22:39;;;;;;;26.40;8.47;;;3.30;96.80;;;;;;4984776;28;20489;-60
2023/04/03 04:25:08;;;;;;;33.40;10.23;;;;;;;;;;4986862;28;20551;-60
2023/04/03 04:27:34;;;;;;;20.03;7.80;;;3.30;96.70;;;;;;4991151;28;20532;-59
2023/04/03 04:30:02;;;;;;;20.53;8.40;;;3.30;96.50;;;;;;5014294;28;20521;-60
2023/04/03 04:32:29;;;;;;;29.13;10.67;;;3.20;96.30;;;;;;4996314;28;20892;-60
2023/04/03 04:34:56;;;;;;;20.67;9.03;;;3.20;96.40;;;;;;4994596;28;20473;-60
2023/04/03 04:37:22;;;;;;;28.63;11.10;;;3.20;96.30;;;;;;4995491;28;20490;-60
2023/04/03 04:39:49;;;;;;;15.03;7.30;;;;;;;;;;4991146;28;20484;-59
2023/04/03 04:42:17;;;;;;;23.23;10.07;;;3.20;96.40;;;;;;5002183;28;20488;-60
2023/04/03 04:44:44;;;;;;;20.03;8.17;;;3.20;96.50;;;;;;4990585;28;20491;-60
2023/04/03 04:47:11;;;;;;;15.17;7.00;;;3.20;96.50;;;;;;5006493;28;20491;-60
2023/04/03 04:49:38;;;;;;;20.93;7.83;;;3.20;96.40;;;;;;4997518;28;20661;-60
2023/04/03 04:52:05;;;;;;;21.30;9.70;;;3.20;96.50;;;;;;5008336;28;21025;-60
2023/04/03 04:54:32;;;;;;;24.63;9.67;;;3.20;96.60;;;;;;4997245;28;20489;-60
2023/04/03 04:56:59;;;;;;;25.57;9.77;;;3.20;96.60;;;;;;4998858;28;20482;-60
2023/04/03 04:59:27;;;;;;;34.97;12.60;;;3.20;96.70;;;;;;4998352;28;20513;-60
2023/04/03 05:01:53;;;;;;;18.47;9.70;;;3.20;96.60;;;;;;4973387;28;20851;-60
2023/04/03 05:04:20;;;;;;;27.50;12.37;;;3.20;96.60;;;;;;4991120;28;20845;-60
2023/04/03 05:06:47;;;;;;;20.20;10.40;;;3.20;96.50;;;;;;4990613;28;20497;-60
2023/04/03 05:09:14;;;;;;;23.27;11.37;;;3.20;96.30;;;;;;4981458;28;20520;-59
2023/04/03 05:11:41;;;;;;;31.13;11.57;;;3.20;96.30;;;;;;4978421;28;20481;-60
2023/04/03 05:14:07;;;;;;;21.87;9.80;;;3.10;96.50;;;;;;5009771;28;21057;-60
2023/04/03 05:16:36;;;;;;;21.27;9.13;;;3.20;96.60;;;;;;4990913;28;20493;-60
2023/04/03 05:19:02;;;;;;;21.33;9.83;;;3.10;96.40;;;;;;4988724;28;20568;-60
2023/04/03 05:21:32;;;;;;;25.93;12.17;;;3.10;96.60;;;;;;5002577;28;20889;-59
2023/04/03 05:23:59;;;;;;;19.57;8.50;;;3.20;96.70;;;;;;5000902;28;20477;-60
2023/04/03 05:26:26;;;;;;;27.03;11.73;;;3.20;96.80;;;;;;5006924;28;20508;-60
2023/04/03 05:28:53;;;;;;;16.37;8.00;;;3.20;96.60;;;;;;5011479;28;21033;-60
2023/04/03 05:31:20;;;;;;;22.73;7.57;;;3.20;96.60;;;;;;5015006;28;20481;-60
2023/04/03 05:33:48;;;;;;;15.67;8.43;;;3.20;96.40;;;;;;5013995;28;20615;-60
2023/04/03 05:36:15;;;;;;;20.60;8.80;;;3.20;96.60;;;;;;5016248;28;20485;-60
2023/04/03 05:38:42;;;;;;;14.57;7.80;;;3.20;96.40;;;;;;5015240;28;20480;-59
2023/04/03 05:41:08;;;;;;;17.20;8.43;;;3.20;96.60;;;;;;5013903;28;20492;-60
2023/04/03 05:43:37;;;;;;;19.30;7.53;;;3.30;96.90;;;;;;5013655;28;20488;-60
2023/04/03 05:46:04;;;;;;;28.03;9.40;;;3.30;96.80;;;;;;4995180;28;20880;-60
2023/04/03 05:48:30;;;;;;;23.80;10.33;;;3.40;96.90;;;;;;5014983;28;20474;-60
2023/04/03 05:50:59;;;;;;;25.20;8.57;;;3.40;96.80;;;;;;5015864;28;21146;-60
2023/04/03 05:53:29;;;;;;;28.23;11.50;;;3.40;96.70;;;;;;5013494;28;20489;-60
2023/04/03 05:55:55;;;;;;;18.00;8.77;;;3.40;96.70;;;;;;5015110;28;20469;-60
2023/04/03 05:58:22;;;;;;;34.37;12.77;;;3.40;96.40;;;;;;5010367;28;20488;-60
2023/04/03 06:00:49;;;;;;;16.20;7.80;;;3.40;96.60;;;;;;5009563;28;20488;-60
2023/04/03 06:03:16;;;;;;;16.53;7.13;;;3.40;96.30;;;;;;5013483;28;20782;-60
2023/04/03 06:05:43;;;;;;;20.13;8.63;;;3.40;96.40;;;;;;5017093;28;20487;-59
2023/04/03 06:08:12;;;;;;;15.57;7.50;;;3.60;96.70;;;;;;5011593;28;20486;-60
2023/04/03 06:10:39;;;;;;;19.17;7.30;;;4.00;97.30;;;;;;5013712;28;20869;-60
2023/04/03 06:13:06;;;;;;;17.20;7.40;;;4.60;97.00;;;;;;5013082;28;20751;-60
2023/04/03 06:15:33;;;;;;;25.20;6.63;;;5.50;96.30;;;;;;5014540;28;20740;-60
2023/04/03 06:18:00;;;;;;;18.77;8.90;;;6.20;95.70;;;;;;5011164;28;20564;-61
2023/04/03 06:20:27;;;;;;;23.57;10.23;;;6.70;94.80;;;;;;5011701;28;20784;-61
2023/04/03 06:22:54;;;;;;;15.43;6.83;;;7.50;93.80;;;;;;5010518;28;20489;-60
2023/04/03 06:25:22;;;;;;;26.27;11.03;;;7.80;92.70;;;;;;5013465;28;20499;-60
2023/04/03 06:27:49;;;;;;;24.50;8.40;;;8.10;91.90;;;;;;5015428;28;20663;-60
2023/04/03 06:30:16;;;;;;;16.33;7.80;;;8.70;91.60;;;;;;5015424;28;20492;-61
2023/04/03 06:32:42;;;;;;;12.77;6.90;;;9.30;91.30;;;;;;5006989;28;20481;-61
2023/04/03 06:35:10;;;;;;;10.80;6.47;;;9.90;90.30;;;;;;5018392;28;21220;-61
2023/04/03 06:37:37;;;;;;;9.90;4.10;;;10.60;88.70;;;;;;5000831;28;20937;-62
2023/04/03 06:40:05;;;;;;;6.37;5.00;;;10.80;86.10;;;;;;5021811;28;21013;-61
2023/04/03 06:42:33;;;;;;;13.53;6.73;;;11.30;86.50;;;;;;5004971;28;20485;-61
2023/04/03 06:45:00;;;;;;;11.03;6.07;;;11.70;83.70;;;;;;5010933;28;20478;-61
2023/04/03 06:47:26;;;;;;;16.10;8.80;;;12.00;83.40;;;;;;5014516;28;20492;-61
2023/04/03 06:49:53;;;;;;;8.07;6.20;;;12.20;82.30;;;;;;4999608;28;20478;-61
2023/04/03 06:52:20;;;;;;;16.37;8.23;;;12.40;80.70;;;;;;4983511;28;20492;-62
2023/04/03 06:54:47;;;;;;;7.43;5.53;;;12.50;79.80;;;;;;4978575;28;20576;-62
2023/04/03 06:57:15;;;;;;;7.17;5.00;;;12.70;80.00;;;;;;4996921;28;20477;-61
2023/04/03 06:59:43;;;;;;;9.30;4.23;;;13.10;79.40;;;;;;4990809;28;20496;-62
2023/04/03 07:02:12;;;;;;;4.97;4.07;;;13.20;79.00;;;;;;4998879;28;21013;-62
2023/04/03 07:04:39;;;;;;;11.40;6.17;;;13.20;77.80;;;;;;4987436;28;20832;-61
2023/04/03 07:07:05;;;;;;;13.03;5.60;;;12.50;77.00;;;;;;5005389;28;21078;-62
2023/04/03 07:09:32;;;;;;;7.83;5.80;;;13.60;76.80;;;;;;4993050;28;20966;-62
2023/04/03 07:11:59;;;;;;;7.43;6.40;;;13.50;77.10;;;;;;5007803;28;20496;-62
2023/04/03 07:14:26;;;;;;;9.63;4.93;;;13.30;75.20;;;;;;4996606;28;20488;-62
2023/04/03 07:16:54;;;;;;;7.77;5.60;;;13.20;76.20;;;;;;4994990;28;20481;-62
2023/04/03 07:19:21;;;;;;;15.10;9.17;;;13.10;76.60;;;;;;4991374;28;20489;-62
2023/04/03 07:21:48;;;;;;;9.40;5.33;;;13.20;78.40;;;;;;5000334;28;20540;-61
2023/04/03 07:24:14;;;;;;;6.27;4.57;;;12.80;75.40;;;;;;4993654;28;20498;-62
2023/04/03 07:26:41;;;;;;;8.00;5.10;;;12.50;75.90;;;;;;4995642;28;20487;-62
2023/04/03 07:29:08;;;;;;;13.77;6.17;;;12.40;78.50;;;;;;4985088;28;20478;-62
2023/04/03 07:31:35;;;;;;;14.43;7.90;;;12.30;77.90;;;;;;5020681;28;21001;-62
2023/04/03 07:34:04;;;;;;;11.20;6.00;;;12.00;76.70;;;;;;5003411;28;20832;-61
2023/04/03 07:36:33;;;;;;;13.83;6.27;;;11.60;77.20;;;;;;4985087;28;20493;-61
2023/04/03 07:38:59;;;;;;;14.90;7.57;;;11.30;78.10;;;;;;5003349;28;20839;-61
2023/04/03 07:41:26;;;;;;;31.60;12.83;;;11.10;79.80;;;;;;4994086;28;20480;-61
2023/04/03 07:43:53;;;;;;;20.90;7.60;;;10.80;80.90;;;;;;4999007;28;21038;-61
2023/04/03 07:46:20;;;;;;;24.10;8.43;;;10.60;81.70;;;;;;4991365;28;20481;-61
2023/04/03 07:48:47;;;;;;;21.27;7.87;;;10.50;82.50;;;;;;4989282;28;20517;-60
2023/04/03 07:51:16;;;;;;;18.40;6.97;;;10.10;83.60;;;;;;5016417;28;20964;-60
2023/04/03 07:53:42;;;;;;;12.47;5.63;;;10.00;84.30;;;;;;5009958;28;20499;-62
2023/04/03 07:56:09;;;;;;;15.97;6.80;;;9.90;85.20;;;;;;5021879;28;20798;-62
2023/04/03 07:58:36;;;;;;;13.30;6.67;;;9.90;86.30;;;;;;4992700;28;20624;-61
2023/04/03 08:01:03;;;;;;;14.67;6.80;;;9.90;87.60;;;;;;5003070;28;20506;-61
2023/04/03 08:03:30;;;;;;;23.90;8.20;;;9.80;85.50;;;;;;4998165;28;20796;-62
2023/04/03 08:06:04;;;;;;;25.30;8.23;;;9.60;85.30;;;;;;5011317;28;20501;-62
2023/04/03 08:08:32;;;;;;;22.37;9.00;;;9.60;86.30;;;;;;4988439;28;20489;-61
2023/04/03 08:11:01;;;;;;;19.40;6.83;;;9.60;86.60;;;;;;4993679;28;20748;-61
2023/04/03 08:13:29;;;;;;;33.63;9.70;;;9.50;85.80;;;;;;4994313;28;21004;-61
2023/04/03 08:15:56;;;;;;;30.67;8.70;;;9.50;86.80;;;;;;4988355;28;20469;-61
2023/04/03 08:18:25;;;;;;;25.53;9.30;;;9.50;88.60;;;;;;4986984;28;20761;-61
2023/04/03 08:20:52;;;;;;;21.10;8.27;;;9.60;90.30;;;;;;4973260;28;20489;-61
2023/04/03 08:23:19;;;;;;;37.20;10.93;;;9.50;90.00;;;;;;5000518;28;20909;-62
2023/04/03 08:25:48;;;;;;;21.20;6.57;;;9.40;89.70;;;;;;4993692;28;20539;-62
2023/04/03 08:28:14;;;;;;;18.87;6.70;;;9.10;89.10;;;;;;4991076;28;20493;-61
2023/04/03 08:30:42;;;;;;;21.60;7.43;;;9.10;90.20;;;;;;4996109;28;20736;-60
2023/04/03 08:33:10;;;;;;;25.50;7.43;;;9.20;90.20;;;;;;4989231;28;20512;-60
2023/04/03 08:35:40;;;;;;;20.53;7.53;;;9.30;91.20;;;;;;4984508;28;20485;-60
2023/04/03 08:38:06;;;;;;;20.07;7.83;;;9.40;90.30;;;;;;5004485;28;20686;-61
2023/04/03 08:40:33;;;;;;;14.23;5.60;;;9.70;90.10;;;;;;4995931;28;20484;-61
2023/04/03 08:43:16;;;;;;;20.77;8.20;;;9.70;89.40;;;;;;5004575;28;20762;-60
2023/04/03 08:45:46;;;;;;;18.40;6.63;;;9.90;90.50;;;;;;4988703;28;20688;-61
2023/04/03 08:48:16;;;;;;;16.07;6.43;;;9.80;89.40;;;;;;4983206;28;20500;-60
2023/04/03 08:50:48;;;;;;;14.00;6.47;;;9.70;87.50;;;;;;4968247;28;20509;-60
2023/04/03 08:53:17;;;;;;;17.63;7.27;;;9.40;87.90;;;;;;5007998;28;21001;-61
2023/04/03 08:55:45;;;;;;;16.33;6.10;;;9.30;88.30;;;;;;4997676;28;20833;-60
2023/04/03 08:58:17;;;;;;;12.17;5.60;;;9.10;89.30;;;;;;4998420;28;20828;-60
2023/04/03 09:00:48;;;;;;;15.67;6.43;;;9.00;89.10;;;;;;5002098;28;20490;-60
2023/04/03 09:03:17;;;;;;;16.03;6.77;;;9.00;89.10;;;;;;4995404;28;21014;-60
2023/04/03 09:05:49;;;;;;;13.00;4.80;;;9.40;89.80;;;;;;5006959;28;20501;-61
2023/04/03 09:08:25;;;;;;;13.10;6.70;;;9.60;89.30;;;;;;4992975;28;20995;-61
2023/04/03 09:10:59;;;;;;;27.27;6.13;;;10.00;86.10;;;;;;4983210;28;20493;-61
2023/04/03 09:13:34;;;;;;;9.97;6.90;;;10.00;85.90;;;;;;4992333;28;20473;-61
2023/04/03 09:16:03;;;;;;;6.13;4.67;;;9.70;85.50;;;;;;4988871;28;21316;-61
2023/04/03 09:18:33;;;;;;;7.40;5.63;;;9.80;86.50;;;;;;4982226;28;20889;-61
2023/04/03 09:21:08;;;;;;;9.17;5.90;;;10.00;89.60;;;;;;4996025;28;20882;-62
2023/04/03 09:23:43;;;;;;;6.80;3.23;;;10.20;87.10;;;;;;4992101;28;20473;-62
2023/04/03 09:26:15;;;;;;;8.10;4.70;;;10.40;85.40;;;;;;4988222;28;20997;-62
2023/04/03 09:28:44;;;;;;;7.23;4.23;;;10.00;82.50;;;;;;4987535;28;21216;-62
2023/04/03 09:31:20;;;;;;;6.63;4.00;;;10.00;82.80;;;;;;4983198;28;20971;-62
2023/04/03 09:33:47;;;;;;;9.87;5.83;;;10.10;85.30;;;;;;4972969;28;20480;-62
2023/04/03 09:36:14;;;;;;;13.37;4.70;;;10.40;86.30;;;;;;4996288;28;20723;-62
2023/04/03 09:38:41;;;;;;;7.97;4.77;;;10.60;84.40;;;;;;4990061;28;20487;-62
2023/04/03 09:41:16;;;;;;;5.67;5.07;;;10.90;85.20;;;;;;4985224;28;20481;-62
2023/04/03 09:43:55;;;;;;;7.83;4.80;;;10.70;81.60;;;;;;4990819;28;20486;-62
2023/04/03 09:46:31;;;;;;;13.83;8.57;;;10.70;82.30;;;;;;4975325;28;21010;-62
2023/04/03 09:49:04;;;;;;;11.67;5.77;;;10.50;82.70;;;;;;4987131;28;20638;-62
2023/04/03 09:51:32;;;;;;;9.33;7.07;;;10.70;84.40;;;;;;4986075;28;20582;-61
2023/04/03 09:53:59;;;;;;;11.47;5.23;;;10.90;85.10;;;;;;4990740;28;20488;-62
2023/04/03 09:56:28;;;;;;;8.43;6.33;;;;;;;;;;4994311;28;20493;-61
2023/04/03 09:59:14;;;;;;;6.63;5.10;;;10.60;81.10;;;;;;4994571;28;20470;-62
2023/04/03 10:01:44;;;;;;;4.20;3.60;;;10.60;81.10;;;;;;4980945;28;20509;-62
2023/04/03 10:04:12;;;;;;;6.30;4.50;;;10.40;80.10;;;;;;4998060;28;20478;-62
2023/04/03 10:06:43;;;;;;;7.27;4.10;;;10.30;81.80;;;;;;4978021;28;20481;-62
2023/04/03 10:09:20;;;;;;;3.93;3.13;;;10.40;81.70;;;;;;4993661;28;21052;-62
2023/04/03 10:12:05;;;;;;;15.73;5.57;;;10.70;84.00;;;;;;4974616;28;20931;-62
2023/04/03 10:14:35;;;;;;;17.23;5.60;;;10.70;80.60;;;;;;4978842;28;21019;-62
2023/04/03 10:17:18;;;;;;;14.80;4.23;;;10.50;80.10;;;;;;4985108;28;20491;-62
2023/04/03 10:19:48;;;;;;;4.83;4.33;;;10.50;80.50;;;;;;5000573;28;20816;-62
2023/04/03 10:22:24;;;;;;;6.20;4.80;;;10.40;80.40;;;;;;5014346;28;20496;-62
2023/04/03 10:25:03;;;;;;;5.87;4.07;;;10.20;77.10;;;;;;4996903;28;20861;-61
2023/04/03 10:27:40;;;;;;;12.03;7.10;;;10.30;80.80;;;;;;4985650;28;21140;-61
2023/04/03 10:30:21;;;;;;;6.47;4.60;;;10.20;79.50;;;;;;5013230;28;20491;-62
2023/04/03 10:32:58;;;;;;;7.80;3.17;;;10.20;78.90;;;;;;4982926;28;20890;-61
2023/04/03 10:35:37;;;;;;;14.20;8.73;;;10.20;80.00;;;;;;5013883;28;20844;-62
2023/04/03 10:38:13;;;;;;;12.10;5.13;;;10.20;79.40;;;;;;5001997;28;20492;-62
2023/04/03 10:40:48;;;;;;;8.80;5.67;;;10.30;80.30;;;;;;5004851;28;20484;-62
2023/04/03 10:43:21;;;;;;;5.80;3.77;;;10.20;80.20;;;;;;4983935;28;20492;-62
2023/04/03 10:45:58;;;;;;;12.67;6.70;;;10.30;80.80;;;;;;4993379;28;20478;-62
2023/04/03 10:48:38;;;;;;;25.57;8.33;;;10.20;79.40;;;;;;4990712;28;20503;-62
2023/04/03 10:51:16;;;;;;;7.60;4.20;;;10.50;81.50;;;;;;4988488;28;20492;-62
2023/04/03 10:53:50;;;;;;;22.93;5.70;;;10.60;80.50;;;;;;4993460;28;20842;-62
2023/04/03 10:56:22;;;;;;;12.63;6.37;;;10.50;78.30;;;;;;4995047;28;20490;-62
2023/04/03 10:58:55;;;;;;;11.67;6.23;;;10.30;78.00;;;;;;4994066;28;20477;-62
2023/04/03 11:01:28;;;;;;;17.67;8.80;;;10.20;77.10;;;;;;4979643;28;20490;-63
2023/04/03 11:03:58;;;;;;;10.40;5.97;;;10.10;77.30;;;;;;4983189;28;21081;-62
2023/04/03 11:06:29;;;;;;;16.90;6.40;;;10.10;79.00;;;;;;4998210;28;20561;-62
2023/04/03 11:09:01;;;;;;;15.67;7.53;;;10.00;80.80;;;;;;4987718;28;20552;-62
2023/04/03 11:11:32;;;;;;;27.70;10.10;;;10.00;80.20;;;;;;4994358;28;20888;-62
2023/04/03 11:14:03;;;;;;;16.50;7.83;;;9.90;80.60;;;;;;4980779;28;20949;-62
2023/04/03 11:16:38;;;;;;;20.27;8.80;;;9.90;80.00;;;;;;4982889;28;20839;-62
2023/04/03 11:19:15;;;;;;;18.70;8.60;;;9.90;81.50;;;;;;4990627;28;20526;-62
2023/04/03 11:21:48;;;;;;;9.50;4.90;;;9.90;81.60;;;;;;4984444;28;20476;-62
2023/04/03 11:24:21;;;;;;;15.83;5.67;;;10.00;79.60;;;;;;4987865;28;20890;-62
2023/04/03 11:26:52;;;;;;;9.43;5.03;;;10.00;79.00;;;;;;4995531;28;20577;-62
2023/04/03 11:29:24;;;;;;;21.83;9.07;;;10.50;80.80;;;;;;4998987;28;20487;-61
2023/04/03 11:32:10;;;;;;;17.50;7.47;;;10.60;81.30;;;;;;5012304;28;20482;-61
2023/04/03 11:34:40;;;;;;;18.13;6.37;;;10.60;78.90;;;;;;4997828;28;20479;-61
2023/04/03 11:37:15;;;;;;;8.90;5.10;;;10.40;79.10;;;;;;5020539;28;20481;-61
2023/04/03 11:39:51;;;;;;;11.60;6.00;;;10.40;79.20;;;;;;4996427;28;20468;-61
2023/04/03 11:42:29;;;;;;;18.57;8.60;;;10.40;80.10;;;;;;5013073;28;20511;-61
2023/04/03 11:45:17;;;;;;;11.03;5.30;;;10.20;78.30;;;;;;5002531;28;20837;-61
2023/04/03 11:47:48;;;;;;;14.63;6.80;;;12.00;80.20;;;;;;4999676;28;20475;-61
2023/04/03 11:50:45;;;;;;;13.87;7.10;;;10.30;78.80;;;;;;5007702;28;20480;-61
2023/04/03 11:53:30;;;;;;;20.37;7.07;;;10.50;80.90;;;;;;4986812;28;20464;-61
2023/04/03 11:56:00;;;;;;;15.33;7.13;;;10.50;79.30;;;;;;5002996;28;20472;-61
2023/04/03 11:58:28;;;;;;;22.83;9.70;;;10.60;79.80;;;;;;4994724;28;20812;-60
2023/04/03 12:01:01;;;;;;;9.60;5.07;;;10.90;80.10;;;;;;5002118;28;20474;-61
2023/04/03 12:03:34;;;;;;;25.00;11.50;;;11.00;78.60;;;;;;4977373;28;21008;-61
2023/04/03 12:06:35;;;;;;;13.63;6.50;;;10.80;76.70;;;;;;5012949;28;20483;-61
2023/04/03 12:09:02;;;;;;;11.63;5.57;;;10.60;73.60;;;;;;5002688;28;20605;-61
2023/04/03 12:11:31;;;;;;;23.67;9.30;;;10.60;77.60;;;;;;5003192;28;20490;-61
2023/04/03 12:14:14;;;;;;;14.40;6.23;;;10.70;77.00;;;;;;5018391;28;20484;-61
2023/04/03 12:16:45;;;;;;;35.03;7.80;;;10.90;77.50;;;;;;4984463;28;20473;-61
2023/04/03 12:19:35;;;;;;;8.30;4.97;;;10.80;78.30;;;;;;4985008;28;20689;-61
2023/04/03 12:22:16;;;;;;;13.90;6.30;;;11.10;78.40;;;;;;5000394;28;20472;-62
2023/04/03 12:24:44;;;;;;;8.13;6.40;;;11.20;78.00;;;;;;5012403;28;20494;-62
2023/04/03 12:27:32;;;;;;;4.80;4.30;;;11.40;77.90;;;;;;5022613;28;20563;-62
2023/04/03 12:30:09;;;;;;;5.90;4.30;;;11.60;80.90;;;;;;5016784;28;20537;-62
2023/04/03 12:32:55;;;;;;;8.03;3.97;;;11.30;77.00;;;;;;5023820;28;20485;-62
2023/04/03 12:35:28;;;;;;;10.37;6.53;;;11.20;75.70;;;;;;4992166;28;21079;-62
2023/04/03 12:38:40;;;;;;;5.80;4.47;;;11.10;76.40;;;;;;5008930;28;20568;-62
2023/04/03 12:41:29;;;;;;;3.87;3.30;;;11.10;78.50;;;;;;4997583;28;20499;-62
2023/04/03 12:44:26;;;;;;;9.63;5.30;;;11.10;77.20;;;;;;4997347;28;20867;-62
2023/04/03 12:46:53;;;;;;;7.10;4.90;;;11.10;78.60;;;;;;4985850;28;20474;-63
2023/04/03 12:49:36;;;;;;;13.43;7.07;;;11.30;78.80;;;;;;4999588;28;20482;-61
2023/04/03 12:52:17;;;;;;;10.80;6.90;;;11.50;80.10;;;;;;4995613;28;20482;-62
2023/04/03 12:54:47;;;;;;;6.23;4.73;;;11.30;76.30;;;;;;4997422;28;20496;-62
2023/04/03 12:57:22;;;;;;;6.53;4.07;;;11.30;77.20;;;;;;5001230;28;20866;-61
2023/04/03 12:59:49;;;;;;;8.67;5.03;;;11.10;76.40;;;;;;4999863;28;20522;-61